createdAt,value
2019-06-15T00:00:22.548Z,1006.19
2019-06-15T00:01:22.554Z,1006.12
2019-06-15T00:02:22.543Z,1006.05
2019-06-15T00:03:22.542Z,1006.08
2019-06-15T00:04:22.528Z,1005.99
2019-06-15T00:05:22.535Z,1005.98
2019-06-15T00:06:22.531Z,1005.98
2019-06-15T00:07:22.527Z,1005.95
2019-06-15T00:08:22.519Z,1005.95
2019-06-15T00:09:22.514Z,1005.96
2019-06-15T00:10:22.512Z,1005.91
2019-06-15T00:11:22.503Z,1005.89
2019-06-15T00:12:22.505Z,1005.84
2019-06-15T00:13:22.497Z,1005.82
2019-06-15T00:14:22.510Z,1005.81
2019-06-15T00:15:22.495Z,1005.78
2019-06-15T00:16:22.486Z,1005.69
2019-06-15T00:17:22.482Z,1005.59
2019-06-15T00:18:23.470Z,1005.41
2019-06-15T00:19:22.489Z,1005.19
2019-06-15T00:20:22.475Z,1004.96
2019-06-15T00:21:22.475Z,1004.82
2019-06-15T00:22:22.459Z,1004.67
2019-06-15T00:23:22.465Z,1004.61
2019-06-15T00:24:34.579Z,1004.58
2019-06-15T00:25:22.452Z,1004.62
2019-06-15T00:26:22.446Z,1004.62
2019-06-15T00:27:22.439Z,1004.68
2019-06-15T00:28:22.437Z,1004.63
2019-06-15T00:29:22.428Z,1004.59
2019-06-15T00:30:22.426Z,1004.60
2019-06-15T00:31:22.422Z,1004.56
2019-06-15T00:32:22.419Z,1004.49
2019-06-15T00:33:22.408Z,1004.51
2019-06-15T00:34:22.408Z,1004.43
2019-06-15T00:35:22.404Z,1004.50
2019-06-15T00:36:22.397Z,1004.50
2019-06-15T00:37:22.396Z,1004.50
2019-06-15T00:38:22.389Z,1004.53
2019-06-15T00:39:22.382Z,1004.56
2019-06-15T00:40:22.385Z,1004.56
2019-06-15T00:41:22.379Z,1004.53
2019-06-15T00:42:22.369Z,1004.50
2019-06-15T00:43:22.366Z,1004.48
2019-06-15T00:44:22.365Z,1004.48
2019-06-15T00:45:22.355Z,1004.50
2019-06-15T00:46:22.354Z,1004.43
2019-06-15T00:47:22.340Z,1004.35
2019-06-15T00:48:22.338Z,1004.32
2019-06-15T00:49:22.340Z,1004.25
2019-06-15T00:50:22.344Z,1004.24
2019-06-15T00:51:22.367Z,1004.26
2019-06-15T00:52:22.316Z,1004.21
2019-06-15T00:53:22.308Z,1004.16
2019-06-15T00:54:22.301Z,1004.13
2019-06-15T00:55:22.299Z,1004.05
2019-06-15T00:56:22.299Z,1004.01
2019-06-15T00:57:22.291Z,1003.97
2019-06-15T00:58:22.284Z,1003.99
2019-06-15T00:59:22.287Z,1003.97
2019-06-15T01:00:22.285Z,1003.97
2019-06-15T01:01:22.273Z,1003.92
2019-06-15T01:02:22.272Z,1003.90
2019-06-15T01:03:22.266Z,1003.87
2019-06-15T01:04:22.272Z,1003.86
2019-06-15T01:05:22.265Z,1003.84
2019-06-15T01:06:22.257Z,1003.90
2019-06-15T01:07:22.240Z,1003.88
2019-06-15T01:08:22.238Z,1003.88
2019-06-15T01:09:22.241Z,1003.92
2019-06-15T01:10:22.232Z,1003.96
2019-06-15T01:11:22.220Z,1003.96
2019-06-15T01:12:22.216Z,1003.95
2019-06-15T01:13:22.216Z,1003.90
2019-06-15T01:14:22.209Z,1003.85
2019-06-15T01:15:22.211Z,1003.85
2019-06-15T01:16:22.196Z,1003.81
2019-06-15T01:17:22.199Z,1003.80
2019-06-15T01:18:22.199Z,1003.79
2019-06-15T01:19:22.193Z,1003.77
2019-06-15T01:20:22.179Z,1003.71
2019-06-15T01:21:22.181Z,1003.66
2019-06-15T01:22:22.171Z,1003.62
2019-06-15T01:23:22.215Z,1003.60
2019-06-15T01:24:22.164Z,1003.64
2019-06-15T01:25:22.159Z,1003.61
2019-06-15T01:26:22.155Z,1003.60
2019-06-15T01:27:22.152Z,1003.65
2019-06-15T01:28:22.149Z,1003.65
2019-06-15T01:29:22.146Z,1003.70
2019-06-15T01:30:22.138Z,1003.73
2019-06-15T01:31:22.136Z,1003.75
2019-06-15T01:32:22.127Z,1003.71
2019-06-15T01:33:22.125Z,1003.75
2019-06-15T01:34:22.114Z,1003.78
2019-06-15T01:35:22.120Z,1003.82
2019-06-15T01:36:22.103Z,1003.88
2019-06-15T01:37:22.102Z,1003.92
2019-06-15T01:38:22.102Z,1003.83
2019-06-15T01:39:22.097Z,1003.75
2019-06-15T01:40:22.084Z,1003.66
2019-06-15T01:41:22.076Z,1003.56
2019-06-15T01:42:22.072Z,1003.57
2019-06-15T01:43:22.075Z,1003.54
2019-06-15T01:44:22.064Z,1003.53
2019-06-15T01:45:22.070Z,1003.49
2019-06-15T01:46:22.056Z,1003.46
2019-06-15T01:47:22.053Z,1003.33
2019-06-15T01:48:22.051Z,1003.28
2019-06-15T01:49:22.048Z,1003.23
2019-06-15T01:50:22.065Z,1003.16
2019-06-15T01:51:22.034Z,1003.12
2019-06-15T01:52:22.030Z,1002.97
2019-06-15T01:53:22.026Z,1002.83
2019-06-15T01:54:22.025Z,1002.71
2019-06-15T01:55:22.019Z,1002.71
2019-06-15T01:56:22.036Z,1002.59
2019-06-15T01:57:22.008Z,1002.53
2019-06-15T01:58:22.000Z,1002.43
2019-06-15T01:59:22.021Z,1002.42
2019-06-15T02:00:21.992Z,1002.44
2019-06-15T02:01:21.988Z,1002.42
2019-06-15T02:02:21.995Z,1002.48
2019-06-15T02:03:21.973Z,1002.50
2019-06-15T02:04:21.984Z,1002.50
2019-06-15T02:05:21.963Z,1002.49
2019-06-15T02:06:21.962Z,1002.49
2019-06-15T02:07:21.952Z,1002.46
2019-06-15T02:08:21.950Z,1002.44
2019-06-15T02:09:21.945Z,1002.38
2019-06-15T02:10:21.938Z,1002.33
2019-06-15T02:11:21.936Z,1002.33
2019-06-15T02:12:21.931Z,1002.29
2019-06-15T02:13:21.924Z,1002.29
2019-06-15T02:14:21.921Z,1002.27
2019-06-15T02:15:21.917Z,1002.25
2019-06-15T02:16:21.908Z,1002.18
2019-06-15T02:17:21.906Z,1002.17
2019-06-15T02:18:21.907Z,1002.16
2019-06-15T02:19:21.895Z,1002.11
2019-06-15T02:20:21.889Z,1002.10
2019-06-15T02:21:21.885Z,1002.09
2019-06-15T02:22:21.886Z,1002.08
2019-06-15T02:23:21.908Z,1002.04
2019-06-15T02:24:21.872Z,1001.98
2019-06-15T02:25:34.874Z,1001.95
2019-06-15T02:26:21.862Z,1001.91
2019-06-15T02:27:21.872Z,1001.88
2019-06-15T02:28:21.857Z,1001.89
2019-06-15T02:29:21.848Z,1001.87
2019-06-15T02:30:21.845Z,1001.86
2019-06-15T02:31:21.837Z,1001.81
2019-06-15T02:32:21.836Z,1001.78
2019-06-15T02:33:21.825Z,1001.73
2019-06-15T02:34:21.824Z,1001.67
2019-06-15T02:35:21.816Z,1001.64
2019-06-15T02:36:21.813Z,1001.61
2019-06-15T02:37:21.834Z,1001.64
2019-06-15T02:38:21.795Z,1001.63
2019-06-15T02:39:21.790Z,1001.64
2019-06-15T02:40:21.791Z,1001.68
2019-06-15T02:41:21.783Z,1001.67
2019-06-15T02:42:21.779Z,1001.72
2019-06-15T02:43:21.782Z,1001.73
2019-06-15T02:44:21.771Z,1001.78
2019-06-15T02:45:21.766Z,1001.74
2019-06-15T02:46:25.975Z,1001.73
2019-06-15T02:47:21.759Z,1001.75
2019-06-15T02:48:21.749Z,1001.77
2019-06-15T02:49:21.756Z,1001.77
2019-06-15T02:50:21.743Z,1001.73
2019-06-15T02:51:21.739Z,1001.72
2019-06-15T02:52:21.728Z,1001.71
2019-06-15T02:53:21.731Z,1001.69
2019-06-15T02:54:21.718Z,1001.75
2019-06-15T02:55:21.720Z,1001.72
2019-06-15T02:56:21.714Z,1001.70
2019-06-15T02:57:21.706Z,1001.69
2019-06-15T02:58:21.700Z,1001.71
2019-06-15T02:59:21.697Z,1001.69
2019-06-15T03:00:21.694Z,1001.71
2019-06-15T03:01:21.689Z,1001.74
2019-06-15T03:02:21.679Z,1001.73
2019-06-15T03:03:21.674Z,1001.75
2019-06-15T03:04:21.676Z,1001.75
2019-06-15T03:05:21.671Z,1001.72
2019-06-15T03:06:21.662Z,1001.72
2019-06-15T03:07:21.661Z,1001.75
2019-06-15T03:08:21.655Z,1001.77
2019-06-15T03:09:21.655Z,1001.79
2019-06-15T03:10:21.640Z,1001.80
2019-06-15T03:11:21.642Z,1001.88
2019-06-15T03:12:21.631Z,1001.85
2019-06-15T03:13:21.624Z,1001.86
2019-06-15T03:14:21.626Z,1001.85
2019-06-15T03:15:21.622Z,1001.92
2019-06-15T03:16:21.613Z,1001.97
2019-06-15T03:17:21.615Z,1001.97
2019-06-15T03:18:21.600Z,1001.98
2019-06-15T03:19:21.598Z,1002.05
2019-06-15T03:20:21.592Z,1002.02
2019-06-15T03:21:21.596Z,1002.06
2019-06-15T03:22:21.584Z,1002.07
2019-06-15T03:23:21.587Z,1002.03
2019-06-15T03:24:42.578Z,1002.01
2019-06-15T03:25:21.572Z,1002.02
2019-06-15T03:26:21.572Z,1002.05
2019-06-15T03:27:21.560Z,1002.10
2019-06-15T03:28:21.559Z,1002.13
2019-06-15T03:29:21.554Z,1002.16
2019-06-15T03:30:21.544Z,1002.16
2019-06-15T03:31:21.546Z,1002.12
2019-06-15T03:32:21.537Z,1002.15
2019-06-15T03:33:21.545Z,1002.13
2019-06-15T03:34:21.528Z,1002.10
2019-06-15T03:35:21.528Z,1002.09
2019-06-15T03:36:21.555Z,1002.04
2019-06-15T03:37:21.516Z,1002.12
2019-06-15T03:38:21.515Z,1002.12
2019-06-15T03:39:21.503Z,1002.11
2019-06-15T03:40:21.501Z,1002.11
2019-06-15T03:41:21.493Z,1002.15
2019-06-15T03:42:21.490Z,1002.15
2019-06-15T03:43:21.486Z,1002.16
2019-06-15T03:44:21.486Z,1002.20
2019-06-15T03:45:21.476Z,1002.28
2019-06-15T03:46:21.477Z,1002.28
2019-06-15T03:47:21.463Z,1002.33
2019-06-15T03:48:21.466Z,1002.39
2019-06-15T03:49:21.459Z,1002.45
2019-06-15T03:50:21.455Z,1002.46
2019-06-15T03:51:21.452Z,1002.48
2019-06-15T03:52:21.449Z,1002.48
2019-06-15T03:53:21.441Z,1002.51
2019-06-15T03:54:21.439Z,1002.48
2019-06-15T03:55:21.422Z,1002.41
2019-06-15T03:56:22.175Z,1002.40
2019-06-15T03:57:21.415Z,1002.33
2019-06-15T03:58:21.415Z,1002.27
2019-06-15T03:59:21.409Z,1002.19
2019-06-15T04:00:21.403Z,1002.21
2019-06-15T04:01:21.408Z,1002.12
2019-06-15T04:02:21.395Z,1002.09
2019-06-15T04:03:21.389Z,1002.08
2019-06-15T04:04:21.397Z,1002.02
2019-06-15T04:05:21.380Z,1002.01
2019-06-15T04:06:21.378Z,1002.00
2019-06-15T04:07:21.372Z,1001.93
2019-06-15T04:08:21.368Z,1001.94
2019-06-15T04:09:21.363Z,1001.89
2019-06-15T04:10:21.359Z,1001.88
2019-06-15T04:11:21.354Z,1001.91
2019-06-15T04:12:21.346Z,1001.94
2019-06-15T04:13:21.340Z,1001.92
2019-06-15T04:14:21.337Z,1001.93
2019-06-15T04:15:21.336Z,1001.92
2019-06-15T04:16:21.327Z,1001.99
2019-06-15T04:17:21.324Z,1002.01
2019-06-15T04:18:21.324Z,1002.02
2019-06-15T04:19:21.317Z,1002.00
2019-06-15T04:20:21.308Z,1001.97
2019-06-15T04:21:21.308Z,1002.02
2019-06-15T04:22:21.301Z,1002.00
2019-06-15T04:23:21.296Z,1001.98
2019-06-15T04:24:21.291Z,1001.92
2019-06-15T04:25:21.290Z,1001.91
2019-06-15T04:26:32.844Z,1001.87
2019-06-15T04:27:21.274Z,1001.82
2019-06-15T04:28:21.291Z,1001.78
2019-06-15T04:29:21.273Z,1001.79
2019-06-15T04:30:21.263Z,1001.81
2019-06-15T04:31:21.263Z,1001.79
2019-06-15T04:32:21.253Z,1001.79
2019-06-15T04:33:21.249Z,1001.74
2019-06-15T04:34:21.242Z,1001.67
2019-06-15T04:35:21.242Z,1001.68
2019-06-15T04:36:21.245Z,1001.62
2019-06-15T04:37:21.235Z,1001.62
2019-06-15T04:38:21.237Z,1001.57
2019-06-15T04:39:21.225Z,1001.55
2019-06-15T04:40:21.219Z,1001.54
2019-06-15T04:41:21.214Z,1001.56
2019-06-15T04:42:21.207Z,1001.58
2019-06-15T04:43:21.237Z,1001.52
2019-06-15T04:44:21.198Z,1001.51
2019-06-15T04:45:21.196Z,1001.48
2019-06-15T04:46:21.188Z,1001.50
2019-06-15T04:47:21.207Z,1001.45
2019-06-15T04:48:21.177Z,1001.44
2019-06-15T04:49:21.200Z,1001.39
2019-06-15T04:50:21.178Z,1001.44
2019-06-15T04:51:21.179Z,1001.44
2019-06-15T04:52:21.166Z,1001.44
2019-06-15T04:53:21.161Z,1001.45
2019-06-15T04:54:21.187Z,1001.44
2019-06-15T04:55:21.152Z,1001.43
2019-06-15T04:56:21.152Z,1001.39
2019-06-15T04:57:21.145Z,1001.37
2019-06-15T04:58:21.148Z,1001.33
2019-06-15T04:59:21.141Z,1001.33
2019-06-15T05:00:21.131Z,1001.34
2019-06-15T05:01:21.126Z,1001.36
2019-06-15T05:02:21.123Z,1001.41
2019-06-15T05:03:21.122Z,1001.41
2019-06-15T05:04:21.116Z,1001.47
2019-06-15T05:05:21.106Z,1001.50
2019-06-15T05:06:21.105Z,1001.52
2019-06-15T05:07:21.101Z,1001.54
2019-06-15T05:08:21.108Z,1001.56
2019-06-15T05:09:21.095Z,1001.57
2019-06-15T05:10:21.093Z,1001.54
2019-06-15T05:11:21.088Z,1001.53
2019-06-15T05:12:21.082Z,1001.50
2019-06-15T05:13:21.076Z,1001.47
2019-06-15T05:14:21.068Z,1001.48
2019-06-15T05:15:21.067Z,1001.49
2019-06-15T05:16:21.067Z,1001.57
2019-06-15T05:17:21.071Z,1001.54
2019-06-15T05:18:21.075Z,1001.61
2019-06-15T05:19:21.054Z,1001.62
2019-06-15T05:20:21.055Z,1001.74
2019-06-15T05:21:21.048Z,1001.77
2019-06-15T05:22:21.048Z,1001.87
2019-06-15T05:23:21.044Z,1001.88
2019-06-15T05:24:21.042Z,1001.97
2019-06-15T05:25:21.027Z,1002.03
2019-06-15T05:26:21.027Z,1002.09
2019-06-15T05:27:21.025Z,1002.17
2019-06-15T05:28:21.018Z,1002.23
2019-06-15T05:29:21.015Z,1002.34
2019-06-15T05:30:21.014Z,1002.39
2019-06-15T05:31:21.007Z,1002.47
2019-06-15T05:32:21.011Z,1002.51
2019-06-15T05:33:21.003Z,1002.48
2019-06-15T05:34:21.025Z,1002.46
2019-06-15T05:35:23.573Z,1002.46
2019-06-15T05:36:20.989Z,1002.39
2019-06-15T05:37:20.988Z,1002.35
2019-06-15T05:38:20.977Z,1002.27
2019-06-15T05:39:20.984Z,1002.23
2019-06-15T05:40:20.976Z,1002.13
2019-06-15T05:41:20.969Z,1002.10
2019-06-15T05:42:20.972Z,1002.09
2019-06-15T05:43:20.974Z,1002.08
2019-06-15T05:44:20.961Z,1002.13
2019-06-15T05:45:20.953Z,1002.12
2019-06-15T05:46:20.948Z,1002.16
2019-06-15T05:47:21.001Z,1002.23
2019-06-15T05:48:20.946Z,1002.29
2019-06-15T05:49:21.006Z,1002.29
2019-06-15T05:50:20.943Z,1002.31
2019-06-15T05:51:20.941Z,1002.32
2019-06-15T05:52:21.114Z,1002.30
2019-06-15T05:53:20.927Z,1002.34
2019-06-15T05:54:20.926Z,1002.40
2019-06-15T05:55:20.917Z,1002.38
2019-06-15T05:56:20.918Z,1002.37
2019-06-15T05:57:22.016Z,1002.42
2019-06-15T05:58:20.907Z,1002.43
2019-06-15T05:59:20.902Z,1002.45
2019-06-15T06:00:20.899Z,1002.39
2019-06-15T06:01:21.092Z,1002.42
2019-06-15T06:02:24.520Z,1002.43
2019-06-15T06:03:20.987Z,1002.44
2019-06-15T06:04:20.884Z,1002.43
2019-06-15T06:05:20.887Z,1002.47
2019-06-15T06:06:20.889Z,1002.45
2019-06-15T06:07:20.868Z,1002.47
2019-06-15T06:08:20.871Z,1002.49
2019-06-15T06:09:20.894Z,1002.45
2019-06-15T06:10:20.870Z,1002.43
2019-06-15T06:11:20.864Z,1002.42
2019-06-15T06:12:20.863Z,1002.43
2019-06-15T06:13:20.855Z,1002.45
2019-06-15T06:14:20.851Z,1002.40
2019-06-15T06:15:20.853Z,1002.37
2019-06-15T06:16:20.841Z,1002.44
2019-06-15T06:17:20.833Z,1002.44
2019-06-15T06:18:20.844Z,1002.49
2019-06-15T06:19:20.822Z,1002.49
2019-06-15T06:20:20.822Z,1002.53
2019-06-15T06:21:20.814Z,1002.55
2019-06-15T06:22:20.819Z,1002.59
2019-06-15T06:23:20.813Z,1002.63
2019-06-15T06:24:20.805Z,1002.64
2019-06-15T06:25:20.801Z,1002.67
2019-06-15T06:26:20.806Z,1002.71
2019-06-15T06:27:33.352Z,1002.73
2019-06-15T06:28:20.791Z,1002.78
2019-06-15T06:29:20.789Z,1002.81
2019-06-15T06:30:20.779Z,1002.83
2019-06-15T06:31:20.784Z,1002.85
2019-06-15T06:32:20.786Z,1002.84
2019-06-15T06:33:20.768Z,1002.90
2019-06-15T06:34:20.768Z,1002.88
2019-06-15T06:35:20.773Z,1002.85
2019-06-15T06:36:20.859Z,1002.86
2019-06-15T06:37:20.757Z,1002.77
2019-06-15T06:38:20.757Z,1002.70
2019-06-15T06:39:20.747Z,1002.67
2019-06-15T06:40:20.746Z,1002.67
2019-06-15T06:41:20.742Z,1002.67
2019-06-15T06:42:20.739Z,1002.70
2019-06-15T06:43:20.746Z,1002.68
2019-06-15T06:44:20.749Z,1002.72
2019-06-15T06:45:20.720Z,1002.74
2019-06-15T06:46:20.717Z,1002.73
2019-06-15T06:47:20.712Z,1002.69
2019-06-15T06:48:20.711Z,1002.68
2019-06-15T06:49:20.713Z,1002.67
2019-06-15T06:50:20.708Z,1002.65
2019-06-15T06:51:20.705Z,1002.68
2019-06-15T06:52:20.696Z,1002.73
2019-06-15T06:53:20.692Z,1002.75
2019-06-15T06:54:20.693Z,1002.75
2019-06-15T06:55:20.689Z,1002.77
2019-06-15T06:56:20.681Z,1002.80
2019-06-15T06:57:20.687Z,1002.80
2019-06-15T06:58:20.726Z,1002.78
2019-06-15T06:59:20.674Z,1002.78
2019-06-15T07:00:20.674Z,1002.78
2019-06-15T07:01:20.668Z,1002.79
2019-06-15T07:02:20.669Z,1002.86
2019-06-15T07:03:20.684Z,1002.83
2019-06-15T07:04:20.663Z,1002.89
2019-06-15T07:05:20.654Z,1002.95
2019-06-15T07:06:20.664Z,1002.97
2019-06-15T07:07:20.647Z,1002.99
2019-06-15T07:08:20.651Z,1003.00
2019-06-15T07:09:20.640Z,1002.99
2019-06-15T07:10:20.650Z,1002.98
2019-06-15T07:11:20.641Z,1002.98
2019-06-15T07:12:20.656Z,1002.96
2019-06-15T07:13:20.634Z,1002.97
2019-06-15T07:14:46.231Z,1003.03
2019-06-15T07:15:20.634Z,1002.99
2019-06-15T07:16:20.625Z,1002.95
2019-06-15T07:17:20.635Z,1002.95
2019-06-15T07:18:20.619Z,1002.94
2019-06-15T07:19:20.624Z,1002.93
2019-06-15T07:20:20.619Z,1002.88
2019-06-15T07:21:20.619Z,1002.89
2019-06-15T07:22:20.612Z,1002.89
2019-06-15T07:23:20.621Z,1002.94
2019-06-15T07:24:20.617Z,1002.86
2019-06-15T07:25:20.609Z,1002.94
2019-06-15T07:26:20.610Z,1002.94
2019-06-15T07:27:20.601Z,1002.93
2019-06-15T07:28:20.598Z,1002.92
2019-06-15T07:29:20.668Z,1002.93
2019-06-15T07:30:20.600Z,1002.96
2019-06-15T07:31:20.605Z,1002.97
2019-06-15T07:32:20.591Z,1002.97
2019-06-15T07:33:20.592Z,1002.97
2019-06-15T07:34:20.591Z,1003.04
2019-06-15T07:35:20.605Z,1002.98
2019-06-15T07:36:20.632Z,1003.04
2019-06-15T07:39:06.347Z,1003.05
2019-06-15T07:39:52.785Z,1003.02
2019-06-15T07:40:52.851Z,1003.03
2019-06-15T07:41:52.743Z,1003.05
2019-06-15T07:45:31.206Z,1003.10
2019-06-15T07:46:27.688Z,1003.12
2019-06-15T07:48:44.241Z,1003.15
2019-06-15T07:49:17.684Z,1003.15
2019-06-15T07:51:14.787Z,1003.13
2019-06-15T07:53:45.859Z,1003.15
2019-06-15T07:57:17.432Z,1003.20
2019-06-15T07:57:57.239Z,1003.20
2019-06-15T08:01:37.164Z,1003.34
2019-06-15T08:02:37.190Z,1003.43
2019-06-15T08:04:20.634Z,1003.48
2019-06-15T08:05:26.711Z,1003.54
2019-06-15T08:07:39.651Z,1003.48
